createdAt,value
2024-01-27T00:02:21.714Z,3.42
2024-01-27T00:04:49.951Z,3.46
2024-01-27T00:07:17.846Z,3.44
2024-01-27T00:09:45.555Z,3.32
2024-01-27T00:12:13.342Z,3.42
2024-01-27T00:14:41.421Z,3.52
2024-01-27T00:17:09.309Z,3.32
2024-01-27T00:19:40.016Z,3.21
2024-01-27T00:22:09.189Z,3.25
2024-01-27T00:24:36.840Z,3.21
2024-01-27T00:27:05.328Z,3.20
2024-01-27T00:29:33.147Z,3.09
2024-01-27T00:32:00.879Z,3.04
2024-01-27T00:34:28.557Z,3.11
2024-01-27T00:36:56.298Z,3.13
2024-01-27T00:39:24.091Z,3.13
2024-01-27T00:41:53.999Z,3.20
2024-01-27T00:44:21.701Z,2.99
2024-01-27T00:46:49.328Z,3.06
2024-01-27T00:49:17.158Z,3.15
2024-01-27T00:51:44.912Z,2.99
2024-01-27T00:54:12.630Z,3.11
2024-01-27T00:56:40.371Z,2.85
2024-01-27T00:59:08.101Z,2.76
2024-01-27T01:01:35.801Z,2.49
2024-01-27T01:04:03.807Z,2.60
2024-01-27T01:06:31.653Z,2.43
2024-01-27T01:08:59.343Z,2.38
2024-01-27T01:11:27.034Z,2.37
2024-01-27T01:13:54.772Z,2.42
2024-01-27T01:16:22.505Z,2.54
2024-01-27T01:18:50.413Z,2.55
2024-01-27T01:21:18.243Z,2.51
2024-01-27T01:23:46.118Z,2.30
2024-01-27T01:26:13.896Z,2.17
2024-01-27T01:28:41.731Z,2.10
2024-01-27T01:31:09.577Z,1.95
2024-01-27T01:33:37.317Z,2.04
2024-01-27T01:36:05.535Z,1.98
2024-01-27T01:38:33.200Z,2.02
2024-01-27T01:41:00.985Z,2.08
2024-01-27T01:43:28.760Z,2.11
2024-01-27T01:45:56.848Z,2.33
2024-01-27T01:48:24.674Z,2.29
2024-01-27T01:50:53.088Z,2.18
2024-01-27T01:53:20.766Z,2.24
2024-01-27T01:55:48.561Z,2.12
2024-01-27T01:58:16.301Z,2.08
2024-01-27T02:00:45.499Z,2.22
2024-01-27T02:03:14.175Z,2.30
2024-01-27T02:05:42.115Z,2.42
2024-01-27T02:08:10.124Z,2.28
2024-01-27T02:10:38.195Z,2.09
2024-01-27T02:13:22.029Z,2.10
2024-01-27T02:15:51.253Z,2.10
2024-01-27T02:18:21.265Z,1.99
2024-01-27T02:20:49.215Z,1.97
2024-01-27T02:23:16.853Z,1.96
2024-01-27T02:25:44.487Z,2.10
2024-01-27T02:28:14.054Z,2.05
2024-01-27T02:30:41.674Z,1.85
2024-01-27T02:33:09.401Z,1.81
2024-01-27T02:35:37.323Z,1.83
2024-01-27T02:38:05.262Z,1.76
2024-01-27T02:40:32.947Z,1.64
2024-01-27T02:43:00.622Z,1.85
2024-01-27T02:45:28.435Z,1.88
2024-01-27T02:47:56.215Z,1.84
2024-01-27T02:50:23.973Z,1.79
2024-01-27T02:52:51.761Z,1.69
2024-01-27T02:55:19.505Z,1.70
2024-01-27T02:57:47.168Z,1.64
2024-01-27T03:00:15.073Z,1.61
2024-01-27T03:02:42.657Z,1.69
2024-01-27T03:05:10.400Z,1.66
2024-01-27T03:07:38.067Z,1.62
2024-01-27T03:10:06.345Z,1.73
2024-01-27T03:12:34.243Z,1.66
2024-01-27T03:15:02.493Z,1.65
2024-01-27T03:17:30.186Z,1.66
2024-01-27T03:19:58.189Z,1.67
2024-01-27T03:22:25.867Z,1.75
2024-01-27T03:24:56.548Z,1.69
2024-01-27T03:27:24.337Z,1.70
2024-01-27T03:29:52.030Z,1.48
2024-01-27T03:32:19.803Z,1.49
2024-01-27T03:34:47.675Z,1.53
2024-01-27T03:37:15.378Z,1.52
2024-01-27T03:39:43.931Z,1.49
2024-01-27T03:42:11.583Z,1.54
2024-01-27T03:44:39.168Z,1.48
2024-01-27T03:47:06.877Z,1.35
2024-01-27T03:49:34.728Z,1.46
2024-01-27T03:52:02.403Z,1.46
2024-01-27T03:54:30.100Z,1.52
2024-01-27T03:56:57.888Z,1.47
2024-01-27T03:59:25.563Z,1.32
2024-01-27T04:01:53.292Z,1.25
2024-01-27T04:04:21.037Z,1.17
2024-01-27T04:06:48.755Z,1.31
2024-01-27T04:09:17.198Z,1.18
2024-01-27T04:11:44.956Z,1.31
2024-01-27T04:14:12.692Z,1.39
2024-01-27T04:16:41.060Z,1.23
2024-01-27T04:19:08.878Z,1.21
2024-01-27T04:21:36.582Z,1.33
2024-01-27T04:24:04.462Z,1.11
2024-01-27T04:26:32.215Z,0.98
2024-01-27T04:28:59.859Z,0.89
2024-01-27T04:31:27.584Z,1.00
2024-01-27T04:33:55.364Z,1.07
2024-01-27T04:36:33.228Z,1.20
2024-01-27T04:39:01.025Z,1.19
2024-01-27T04:41:29.020Z,1.15
2024-01-27T04:43:57.741Z,1.29
2024-01-27T04:46:25.496Z,1.24
2024-01-27T04:48:53.169Z,1.24
2024-01-27T04:51:21.060Z,1.14
2024-01-27T04:53:48.871Z,1.19
2024-01-27T04:56:16.489Z,1.13
2024-01-27T04:58:44.076Z,1.11
2024-01-27T05:01:11.973Z,1.12
2024-01-27T05:03:39.594Z,1.04
2024-01-27T05:06:10.912Z,1.07
2024-01-27T05:08:38.871Z,1.08
2024-01-27T05:11:07.813Z,0.76
2024-01-27T05:13:35.392Z,0.84
2024-01-27T05:16:02.924Z,1.00
2024-01-27T05:18:30.863Z,0.96
2024-01-27T05:20:58.557Z,0.91
2024-01-27T05:23:27.045Z,1.08
2024-01-27T05:25:55.917Z,0.89
2024-01-27T05:28:23.645Z,0.97
2024-01-27T05:30:51.329Z,0.77
2024-01-27T05:33:19.130Z,0.74
2024-01-27T05:35:46.792Z,0.87
2024-01-27T05:38:14.532Z,0.82
2024-01-27T05:40:42.420Z,0.77
2024-01-27T05:43:10.072Z,0.81
2024-01-27T05:45:38.165Z,0.87
2024-01-27T05:48:06.287Z,0.69
2024-01-27T05:50:35.648Z,0.84
2024-01-27T05:53:03.224Z,0.57
2024-01-27T05:55:30.890Z,0.36
2024-01-27T05:57:58.600Z,0.59
2024-01-27T06:00:26.302Z,0.77
2024-01-27T06:02:54.089Z,0.41
2024-01-27T06:05:21.660Z,0.34
2024-01-27T06:07:50.470Z,0.46
2024-01-27T06:10:19.680Z,0.46
2024-01-27T06:12:47.467Z,0.37
2024-01-27T06:15:16.863Z,0.47
2024-01-27T06:17:44.733Z,0.65
2024-01-27T06:20:12.902Z,0.53
2024-01-27T06:22:40.743Z,0.64
2024-01-27T06:25:09.870Z,0.56
2024-01-27T06:27:39.289Z,0.62
2024-01-27T06:30:07.538Z,0.67
2024-01-27T06:32:35.490Z,0.66
2024-01-27T06:35:04.815Z,0.68
2024-01-27T06:37:32.428Z,0.68
2024-01-27T06:40:00.141Z,0.62
2024-01-27T06:42:27.906Z,0.59
2024-01-27T06:44:55.553Z,0.72
2024-01-27T06:47:23.168Z,0.82
2024-01-27T06:49:50.934Z,0.70
2024-01-27T06:52:19.901Z,0.58
2024-01-27T06:54:47.490Z,0.64
2024-01-27T06:57:25.065Z,0.57
2024-01-27T06:59:54.062Z,0.55
2024-01-27T07:02:29.709Z,0.69
2024-01-27T07:04:57.645Z,0.73
2024-01-27T07:07:27.801Z,0.69
2024-01-27T07:09:59.244Z,0.77
2024-01-27T07:12:26.941Z,0.82
2024-01-27T07:14:57.975Z,0.94
2024-01-27T07:17:26.120Z,0.96
2024-01-27T07:19:53.951Z,0.88
2024-01-27T07:22:23.963Z,0.91
2024-01-27T07:24:52.952Z,1.09
2024-01-27T07:27:20.851Z,1.02
2024-01-27T07:29:48.555Z,1.01
2024-01-27T07:32:16.266Z,1.02
2024-01-27T07:34:45.175Z,1.01
2024-01-27T07:37:12.980Z,0.98
2024-01-27T07:39:40.670Z,1.08
2024-01-27T07:42:08.392Z,1.16
2024-01-27T07:44:36.028Z,1.21
2024-01-27T07:47:03.827Z,1.27
2024-01-27T07:49:31.602Z,1.32
2024-01-27T07:51:59.398Z,1.32
2024-01-27T07:54:27.305Z,1.49
2024-01-27T07:56:54.995Z,1.43
2024-01-27T07:59:22.584Z,1.53
2024-01-27T08:01:50.095Z,1.59
2024-01-27T08:04:17.994Z,1.74
2024-01-27T08:06:51.149Z,1.73
2024-01-27T08:09:19.810Z,1.74
2024-01-27T08:11:53.085Z,1.83
2024-01-27T08:14:21.406Z,1.87
2024-01-27T08:16:49.118Z,1.90
2024-01-27T08:19:22.086Z,2.10
2024-01-27T08:21:50.098Z,2.07
2024-01-27T08:24:17.939Z,2.30
2024-01-27T08:26:46.173Z,2.32
2024-01-27T08:29:13.931Z,2.46
2024-01-27T08:31:41.736Z,2.22
2024-01-27T08:34:09.700Z,2.40
2024-01-27T08:36:38.645Z,2.24
2024-01-27T08:39:08.867Z,2.31
2024-01-27T08:41:36.657Z,2.37
2024-01-27T08:44:04.516Z,2.38
2024-01-27T08:46:32.161Z,2.41
2024-01-27T08:49:00.083Z,2.52
2024-01-27T08:51:28.075Z,2.47
2024-01-27T08:53:55.810Z,2.56
2024-01-27T08:56:23.605Z,2.44
2024-01-27T08:58:52.359Z,2.40
2024-01-27T09:01:20.263Z,2.52
2024-01-27T09:03:47.939Z,2.67
2024-01-27T09:06:16.102Z,2.68
2024-01-27T09:08:44.094Z,2.48
2024-01-27T09:11:11.872Z,2.34
2024-01-27T09:13:39.600Z,2.32
2024-01-27T09:16:07.493Z,2.34
2024-01-27T09:18:35.096Z,2.35
2024-01-27T09:21:02.971Z,2.43
2024-01-27T09:23:30.726Z,2.52
2024-01-27T09:25:58.511Z,2.38
2024-01-27T09:28:26.081Z,2.42
2024-01-27T09:30:53.936Z,2.36
2024-01-27T09:33:24.513Z,2.55
2024-01-27T09:35:52.783Z,2.67
2024-01-27T09:38:20.567Z,2.58
2024-01-27T09:40:48.472Z,2.60
2024-01-27T09:43:18.589Z,2.64
2024-01-27T09:45:46.989Z,2.57
2024-01-27T09:48:15.660Z,2.62
2024-01-27T09:50:43.634Z,2.76
2024-01-27T09:53:11.363Z,2.68
2024-01-27T09:55:38.995Z,2.67
2024-01-27T09:58:06.946Z,2.53
2024-01-27T10:00:38.085Z,2.62
2024-01-27T10:03:07.431Z,2.60
2024-01-27T10:05:36.083Z,2.49
2024-01-27T10:08:07.606Z,2.45
2024-01-27T10:10:36.400Z,2.32
2024-01-27T10:13:05.565Z,2.26
2024-01-27T10:15:33.439Z,2.07
2024-01-27T10:18:10.246Z,2.28
2024-01-27T10:20:38.075Z,2.32
2024-01-27T10:23:13.415Z,2.52
2024-01-27T10:25:42.233Z,2.59
2024-01-27T10:28:10.538Z,2.75
2024-01-27T10:30:39.097Z,2.59
2024-01-27T10:33:10.547Z,2.72
2024-01-27T10:35:38.341Z,2.52
2024-01-27T10:38:06.146Z,2.76
2024-01-27T10:40:34.619Z,2.83
2024-01-27T10:43:04.905Z,2.74
2024-01-27T10:45:40.393Z,2.81
2024-01-27T10:48:13.517Z,3.01
2024-01-27T10:50:45.192Z,3.14
2024-01-27T10:53:25.849Z,2.67
2024-01-27T10:55:59.378Z,2.70
2024-01-27T10:58:29.431Z,2.71
2024-01-27T11:00:57.915Z,2.66
2024-01-27T11:03:28.670Z,2.82
2024-01-27T11:05:58.000Z,2.85
2024-01-27T11:08:29.363Z,2.65
2024-01-27T11:10:57.514Z,2.37
2024-01-27T11:13:28.186Z,2.49
2024-01-27T11:15:56.306Z,2.67
2024-01-27T11:18:24.234Z,2.94
2024-01-27T11:20:59.701Z,3.19
2024-01-27T11:23:34.559Z,3.14
2024-01-27T11:26:06.765Z,3.20
2024-01-27T11:28:34.640Z,3.05
2024-01-27T11:31:06.401Z,3.24
2024-01-27T11:33:34.329Z,3.47
2024-01-27T11:36:06.451Z,3.46
2024-01-27T11:38:34.653Z,3.40
2024-01-27T11:41:02.973Z,3.20
2024-01-27T11:43:30.619Z,3.18
2024-01-27T11:46:02.353Z,3.15
2024-01-27T11:48:32.946Z,3.33
2024-01-27T11:51:12.649Z,3.41
2024-01-27T11:53:40.796Z,3.24
2024-01-27T11:56:08.682Z,3.43
2024-01-27T11:58:36.369Z,3.43
2024-01-27T12:01:04.329Z,3.34
2024-01-27T12:03:32.433Z,3.36
2024-01-27T12:06:00.374Z,3.52
2024-01-27T12:08:29.258Z,3.53
2024-01-27T12:10:56.887Z,3.71
2024-01-27T12:13:24.687Z,3.80
2024-01-27T12:15:52.468Z,3.79
2024-01-27T12:18:23.399Z,3.78
2024-01-27T12:20:56.795Z,3.69
2024-01-27T12:23:24.713Z,3.68
2024-01-27T12:25:56.797Z,3.81
2024-01-27T12:28:25.190Z,3.93
2024-01-27T12:30:54.305Z,4.11
2024-01-27T12:33:26.044Z,4.02
2024-01-27T12:35:55.978Z,4.14
2024-01-27T12:38:24.456Z,4.24
2024-01-27T12:40:52.147Z,3.96
2024-01-27T12:43:19.678Z,3.98
2024-01-27T12:45:47.543Z,4.03
2024-01-27T12:48:15.430Z,4.21
2024-01-27T12:50:43.183Z,4.25
2024-01-27T12:53:10.937Z,4.30
2024-01-27T12:55:38.602Z,4.51
2024-01-27T12:58:06.237Z,4.52
2024-01-27T13:00:33.945Z,4.56
2024-01-27T13:03:01.827Z,4.50
2024-01-27T13:05:31.032Z,4.55
2024-01-27T13:07:58.765Z,4.41
2024-01-27T13:10:26.545Z,4.52
2024-01-27T13:12:54.159Z,4.54
2024-01-27T13:15:23.228Z,4.67
2024-01-27T13:17:51.013Z,4.79
2024-01-27T13:20:20.573Z,4.62
2024-01-27T13:22:49.932Z,4.59
2024-01-27T13:25:17.613Z,4.64
2024-01-27T13:27:45.388Z,4.64
2024-01-27T13:30:13.421Z,4.66
2024-01-27T13:32:41.127Z,4.74
2024-01-27T13:35:09.187Z,4.77
2024-01-27T13:37:37.364Z,4.83
2024-01-27T13:40:05.865Z,4.90
2024-01-27T13:42:33.611Z,4.91
2024-01-27T13:45:01.454Z,4.81
2024-01-27T13:47:29.826Z,5.00
2024-01-27T13:49:59.052Z,4.97
2024-01-27T13:52:27.193Z,4.97
2024-01-27T13:54:54.927Z,4.97
2024-01-27T13:57:23.510Z,5.02
2024-01-27T13:59:51.619Z,4.88
2024-01-27T14:02:19.407Z,4.81
2024-01-27T14:04:47.192Z,4.97
2024-01-27T14:07:15.387Z,5.00
2024-01-27T14:09:45.860Z,4.96
2024-01-27T14:12:13.662Z,4.97
2024-01-27T14:14:42.833Z,5.03
2024-01-27T14:17:10.646Z,5.17
2024-01-27T14:19:38.651Z,5.09
2024-01-27T14:22:07.543Z,5.12
2024-01-27T14:24:35.156Z,5.18
2024-01-27T14:27:02.992Z,5.24
2024-01-27T14:29:30.676Z,5.19
2024-01-27T14:31:58.464Z,5.17
2024-01-27T14:34:26.281Z,5.10
2024-01-27T14:36:56.447Z,5.12
2024-01-27T14:39:24.610Z,5.08
2024-01-27T14:41:52.561Z,5.07
2024-01-27T14:44:20.150Z,5.12
2024-01-27T14:46:47.887Z,5.11
2024-01-27T14:49:17.134Z,5.07
2024-01-27T14:51:44.948Z,4.97
2024-01-27T14:54:12.555Z,4.93
2024-01-27T14:56:40.247Z,4.96
2024-01-27T14:59:08.791Z,4.98
2024-01-27T15:01:36.526Z,4.94
2024-01-27T15:04:04.468Z,5.01
2024-01-27T15:06:32.421Z,5.04
2024-01-27T15:09:00.736Z,5.00
2024-01-27T15:11:28.361Z,4.94
2024-01-27T15:13:56.074Z,4.94
2024-01-27T15:16:24.533Z,4.92
2024-01-27T15:18:52.392Z,4.93
2024-01-27T15:21:20.054Z,4.95
2024-01-27T15:23:47.759Z,4.98
2024-01-27T15:26:15.778Z,4.89
2024-01-27T15:28:43.560Z,4.93
2024-01-27T15:31:11.145Z,4.99
2024-01-27T15:33:39.034Z,5.00
2024-01-27T15:36:07.257Z,4.94
2024-01-27T15:38:35.062Z,4.98
2024-01-27T15:41:07.353Z,4.97
2024-01-27T15:43:36.473Z,4.97
2024-01-27T15:46:06.478Z,4.93
2024-01-27T15:48:34.977Z,4.97
2024-01-27T15:51:02.861Z,4.99
2024-01-27T15:53:30.679Z,4.92
2024-01-27T15:55:58.566Z,4.91
2024-01-27T15:58:26.256Z,4.92
2024-01-27T16:00:54.102Z,4.92
2024-01-27T16:03:22.337Z,4.89
2024-01-27T16:05:50.138Z,4.83
2024-01-27T16:08:20.768Z,4.87
2024-01-27T16:10:49.573Z,4.76
2024-01-27T16:13:17.313Z,4.72
2024-01-27T16:15:45.745Z,4.71
2024-01-27T16:18:15.002Z,4.71
2024-01-27T16:20:43.283Z,4.68
2024-01-27T16:23:11.111Z,4.74
2024-01-27T16:25:38.697Z,4.79
2024-01-27T16:28:06.738Z,4.68
2024-01-27T16:30:34.796Z,4.65
2024-01-27T16:33:02.637Z,4.66
2024-01-27T16:35:31.078Z,4.65
2024-01-27T16:37:58.848Z,4.63
2024-01-27T16:40:26.531Z,4.65
2024-01-27T16:42:54.219Z,4.69
2024-01-27T16:45:21.906Z,4.69
2024-01-27T16:47:50.097Z,4.67
2024-01-27T16:53:05.045Z,4.71
2024-01-27T16:55:36.043Z,4.71
2024-01-27T16:58:03.737Z,4.68
2024-01-27T17:00:32.021Z,4.71
2024-01-27T17:02:59.769Z,4.67
2024-01-27T17:05:27.634Z,4.61
2024-01-27T17:07:55.123Z,4.56
2024-01-27T17:10:22.816Z,4.58
2024-01-27T17:12:50.447Z,4.59
2024-01-27T17:15:18.093Z,4.54
2024-01-27T17:17:45.993Z,4.51
2024-01-27T17:20:14.018Z,4.50
2024-01-27T17:22:41.699Z,4.45
2024-01-27T17:25:10.190Z,4.44
2024-01-27T17:27:38.429Z,4.39
2024-01-27T17:30:10.659Z,4.40
2024-01-27T17:32:43.345Z,4.39
2024-01-27T17:35:11.404Z,4.34
2024-01-27T17:37:39.090Z,4.33
2024-01-27T17:40:07.741Z,4.29
2024-01-27T17:42:39.318Z,4.29
2024-01-27T17:45:08.031Z,4.28
2024-01-27T17:47:40.414Z,4.26
2024-01-27T17:50:11.428Z,4.32
2024-01-27T17:52:40.334Z,4.41
2024-01-27T17:55:11.484Z,4.37
2024-01-27T17:57:40.074Z,4.34
2024-01-27T18:00:11.675Z,4.47
2024-01-27T18:02:39.602Z,4.47
2024-01-27T18:05:07.602Z,4.50
2024-01-27T18:07:35.230Z,4.46
2024-01-27T18:10:05.569Z,4.41
2024-01-27T18:12:33.212Z,4.49
2024-01-27T18:15:01.124Z,4.40
2024-01-27T18:17:28.849Z,4.49
2024-01-27T18:19:56.513Z,4.45
2024-01-27T18:22:25.255Z,4.46
2024-01-27T18:24:54.936Z,4.48
2024-01-27T18:27:22.692Z,4.43
2024-01-27T18:29:50.458Z,4.45
2024-01-27T18:32:18.300Z,4.52
2024-01-27T18:34:46.368Z,4.58
2024-01-27T18:37:14.387Z,4.67
2024-01-27T18:39:42.164Z,4.65
2024-01-27T18:42:09.998Z,4.56
2024-01-27T18:44:40.504Z,4.56
2024-01-27T18:47:08.335Z,4.65
2024-01-27T18:49:36.177Z,4.66
2024-01-27T18:52:04.088Z,4.75
2024-01-27T18:54:31.971Z,4.76
2024-01-27T18:57:02.319Z,4.84
2024-01-27T18:59:30.752Z,4.88
2024-01-27T19:01:58.643Z,4.85
2024-01-27T19:04:26.944Z,4.83
2024-01-27T19:06:54.771Z,4.75
2024-01-27T19:09:22.536Z,4.77
2024-01-27T19:11:50.322Z,4.73
2024-01-27T19:14:18.182Z,4.73
2024-01-27T19:16:45.913Z,4.60
2024-01-27T19:19:15.999Z,4.61
2024-01-27T19:21:43.707Z,4.58
2024-01-27T19:24:11.429Z,4.58
2024-01-27T19:26:39.096Z,4.55
2024-01-27T19:29:06.776Z,4.52
2024-01-27T19:31:35.287Z,4.62
2024-01-27T19:34:03.180Z,4.58
2024-01-27T19:36:30.971Z,4.51
2024-01-27T19:38:58.697Z,4.55
2024-01-27T19:41:26.699Z,4.57
2024-01-27T19:43:54.461Z,4.46
2024-01-27T19:46:22.218Z,4.49
2024-01-27T19:48:50.445Z,4.49
2024-01-27T19:51:18.311Z,4.57
2024-01-27T19:53:45.874Z,4.55
2024-01-27T19:56:13.780Z,4.49
2024-01-27T19:58:41.395Z,4.47
2024-01-27T20:01:09.289Z,4.45
2024-01-27T20:03:37.289Z,4.38
2024-01-27T20:06:05.763Z,4.45
2024-01-27T20:08:33.587Z,4.37
2024-01-27T20:11:01.344Z,4.38
2024-01-27T20:13:28.968Z,4.43
2024-01-27T20:15:56.724Z,4.33
2024-01-27T20:18:24.516Z,4.24
2024-01-27T20:20:54.333Z,4.21
2024-01-27T20:23:22.517Z,4.20
2024-01-27T20:25:52.629Z,4.25
2024-01-27T20:28:22.882Z,4.31
2024-01-27T20:30:50.663Z,4.27
2024-01-27T20:33:21.348Z,4.26
2024-01-27T20:35:49.629Z,4.21
2024-01-27T20:38:17.477Z,4.17
2024-01-27T20:40:45.671Z,4.19
2024-01-27T20:43:13.246Z,4.29
2024-01-27T20:45:41.025Z,4.26
2024-01-27T20:48:14.705Z,4.14
2024-01-27T20:50:42.467Z,4.23
2024-01-27T20:53:11.044Z,4.25
2024-01-27T20:55:39.073Z,4.20
2024-01-27T20:58:06.763Z,4.23
2024-01-27T21:00:34.402Z,4.22
2024-01-27T21:03:02.363Z,4.24
2024-01-27T21:05:30.057Z,4.27
2024-01-27T21:07:57.808Z,4.19
2024-01-27T21:10:25.582Z,4.18
2024-01-27T21:12:54.349Z,4.18
2024-01-27T21:15:22.297Z,4.17
2024-01-27T21:17:50.378Z,4.17
2024-01-27T21:20:18.690Z,4.16
2024-01-27T21:22:46.610Z,4.18
2024-01-27T21:25:14.333Z,4.21
2024-01-27T21:27:43.285Z,4.21
2024-01-27T21:30:11.414Z,4.18
2024-01-27T21:32:39.257Z,4.21
2024-01-27T21:35:07.376Z,4.20
2024-01-27T21:37:35.366Z,4.23
2024-01-27T21:40:05.356Z,4.23
2024-01-27T21:42:32.948Z,4.26
2024-01-27T21:45:01.354Z,4.33
2024-01-27T21:47:29.118Z,4.26
2024-01-27T21:49:56.888Z,4.30
2024-01-27T21:52:24.588Z,4.39
2024-01-27T21:54:52.227Z,4.36
2024-01-27T21:57:20.007Z,4.27
2024-01-27T21:59:47.968Z,4.09
2024-01-27T22:02:15.683Z,4.05
2024-01-27T22:04:43.334Z,3.99
2024-01-27T22:07:10.964Z,4.11
2024-01-27T22:09:38.632Z,4.29
2024-01-27T22:12:07.196Z,4.30
2024-01-27T22:14:34.903Z,4.34
2024-01-27T22:17:02.603Z,4.28
2024-01-27T22:19:31.548Z,4.29
2024-01-27T22:21:59.246Z,4.16
2024-01-27T22:24:27.082Z,4.19
2024-01-27T22:26:54.927Z,4.10
2024-01-27T22:29:22.717Z,4.16
2024-01-27T22:31:51.925Z,4.14
2024-01-27T22:34:19.803Z,4.08
2024-01-27T22:36:47.666Z,4.11
2024-01-27T22:39:15.443Z,4.15
2024-01-27T22:41:44.797Z,4.13
2024-01-27T22:44:13.515Z,4.09
2024-01-27T22:46:42.180Z,4.03
2024-01-27T22:49:11.764Z,3.98
2024-01-27T22:51:39.545Z,3.88
2024-01-27T22:54:07.526Z,3.82
2024-01-27T22:56:35.301Z,3.92
2024-01-27T22:59:02.949Z,3.99
2024-01-27T23:01:30.757Z,3.91
2024-01-27T23:03:59.223Z,3.90
2024-01-27T23:06:27.083Z,3.96
2024-01-27T23:08:54.743Z,3.91
2024-01-27T23:11:22.427Z,3.90
2024-01-27T23:13:50.048Z,3.94
2024-01-27T23:16:20.148Z,3.88
2024-01-27T23:18:47.896Z,3.84
2024-01-27T23:21:15.996Z,3.71
2024-01-27T23:23:43.803Z,3.74
2024-01-27T23:26:12.006Z,3.79
2024-01-27T23:28:39.797Z,3.77
2024-01-27T23:31:07.585Z,3.69
2024-01-27T23:33:35.281Z,3.56
2024-01-27T23:36:03.900Z,3.65
2024-01-27T23:38:31.701Z,3.66
2024-01-27T23:40:59.585Z,3.70
2024-01-27T23:43:27.330Z,3.67
2024-01-27T23:45:54.980Z,3.47
2024-01-27T23:48:22.804Z,3.54
2024-01-27T23:50:53.158Z,3.55
2024-01-27T23:53:21.910Z,3.64
2024-01-27T23:55:55.451Z,3.68
2024-01-27T23:58:23.508Z,3.59
